sensor_id;sensor_type;location;lat;lon;timestamp;P1;durP1;ratioP1;P2;durP2;ratioP2
27145;SDS011;17980;51.744;7.190;2023-01-31T00:00:43;20.57;;;3.60;;
27145;SDS011;17980;51.744;7.190;2023-01-31T00:03:20;22.57;;;3.37;;
27145;SDS011;17980;51.744;7.190;2023-01-31T00:05:47;20.40;;;3.10;;
27145;SDS011;17980;51.744;7.190;2023-01-31T00:10:51;25.43;;;3.80;;
27145;SDS011;17980;51.744;7.190;2023-01-31T00:13:18;23.80;;;4.33;;
27145;SDS011;17980;51.744;7.190;2023-01-31T00:15:46;22.33;;;4.07;;
27145;SDS011;17980;51.744;7.190;2023-01-31T00:18:23;23.03;;;3.47;;
27145;SDS011;17980;51.744;7.190;2023-01-31T00:23:27;26.50;;;4.73;;
27145;SDS011;17980;51.744;7.190;2023-01-31T00:25:54;24.03;;;3.67;;
27145;SDS011;17980;51.744;7.190;2023-01-31T00:31:00;18.87;;;3.17;;
27145;SDS011;17980;51.744;7.190;2023-01-31T00:33:27;27.93;;;3.73;;
27145;SDS011;17980;51.744;7.190;2023-01-31T00:36:11;23.20;;;2.80;;
27145;SDS011;17980;51.744;7.190;2023-01-31T00:38:39;28.07;;;4.23;;
27145;SDS011;17980;51.744;7.190;2023-01-31T00:41:08;20.80;;;3.40;;
27145;SDS011;17980;51.744;7.190;2023-01-31T00:46:12;16.87;;;3.57;;
27145;SDS011;17980;51.744;7.190;2023-01-31T00:48:39;29.53;;;3.20;;
27145;SDS011;17980;51.744;7.190;2023-01-31T00:51:06;18.20;;;2.73;;
27145;SDS011;17980;51.744;7.190;2023-01-31T00:53:44;18.00;;;3.23;;
27145;SDS011;17980;51.744;7.190;2023-01-31T00:56:12;22.50;;;3.27;;
27145;SDS011;17980;51.744;7.190;2023-01-31T00:58:41;19.57;;;3.40;;
27145;SDS011;17980;51.744;7.190;2023-01-31T01:01:23;17.57;;;2.90;;
27145;SDS011;17980;51.744;7.190;2023-01-31T01:03:58;20.93;;;2.87;;
27145;SDS011;17980;51.744;7.190;2023-01-31T01:06:26;25.20;;;2.97;;
27145;SDS011;17980;51.744;7.190;2023-01-31T01:08:54;18.93;;;3.00;;
27145;SDS011;17980;51.744;7.190;2023-01-31T01:11:32;16.90;;;3.23;;
27145;SDS011;17980;51.744;7.190;2023-01-31T01:13:59;20.90;;;3.37;;
27145;SDS011;17980;51.744;7.190;2023-01-31T01:16:29;16.03;;;2.63;;
27145;SDS011;17980;51.744;7.190;2023-01-31T01:18:58;24.87;;;2.90;;
27145;SDS011;17980;51.744;7.190;2023-01-31T01:21:28;20.13;;;3.67;;
27145;SDS011;17980;51.744;7.190;2023-01-31T01:24:16;29.40;;;4.53;;
27145;SDS011;17980;51.744;7.190;2023-01-31T01:26:44;18.97;;;2.70;;
27145;SDS011;17980;51.744;7.190;2023-01-31T01:29:12;22.43;;;4.07;;
27145;SDS011;17980;51.744;7.190;2023-01-31T01:31:48;12.70;;;2.70;;
27145;SDS011;17980;51.744;7.190;2023-01-31T01:34:16;18.30;;;3.20;;
27145;SDS011;17980;51.744;7.190;2023-01-31T01:36:43;17.43;;;3.33;;
27145;SDS011;17980;51.744;7.190;2023-01-31T01:39:10;24.30;;;3.83;;
27145;SDS011;17980;51.744;7.190;2023-01-31T01:41:38;23.10;;;3.73;;
27145;SDS011;17980;51.744;7.190;2023-01-31T01:50:08;17.53;;;3.00;;
27145;SDS011;17980;51.744;7.190;2023-01-31T01:52:40;22.27;;;3.70;;
27145;SDS011;17980;51.744;7.190;2023-01-31T01:55:19;19.67;;;2.97;;
27145;SDS011;17980;51.744;7.190;2023-01-31T01:57:50;21.93;;;3.03;;
27145;SDS011;17980;51.744;7.190;2023-01-31T02:00:28;20.40;;;3.70;;
27145;SDS011;17980;51.744;7.190;2023-01-31T02:02:59;19.07;;;2.83;;
27145;SDS011;17980;51.744;7.190;2023-01-31T02:05:30;25.33;;;3.50;;
27145;SDS011;17980;51.744;7.190;2023-01-31T02:07:59;24.07;;;3.70;;
27145;SDS011;17980;51.744;7.190;2023-01-31T02:10:29;19.33;;;2.90;;
27145;SDS011;17980;51.744;7.190;2023-01-31T02:12:59;21.63;;;3.10;;
27145;SDS011;17980;51.744;7.190;2023-01-31T02:15:36;22.03;;;4.23;;
27145;SDS011;17980;51.744;7.190;2023-01-31T02:18:04;19.83;;;3.50;;
27145;SDS011;17980;51.744;7.190;2023-01-31T02:20:44;20.47;;;3.63;;
27145;SDS011;17980;51.744;7.190;2023-01-31T02:23:43;26.70;;;3.30;;
27145;SDS011;17980;51.744;7.190;2023-01-31T02:29:31;21.53;;;2.60;;
27145;SDS011;17980;51.744;7.190;2023-01-31T02:32:23;21.63;;;3.73;;
27145;SDS011;17980;51.744;7.190;2023-01-31T02:35:23;20.67;;;3.70;;
27145;SDS011;17980;51.744;7.190;2023-01-31T02:37:58;20.97;;;3.23;;
27145;SDS011;17980;51.744;7.190;2023-01-31T02:40:45;21.67;;;2.80;;
27145;SDS011;17980;51.744;7.190;2023-01-31T02:43:17;27.33;;;3.17;;
27145;SDS011;17980;51.744;7.190;2023-01-31T02:45:48;20.07;;;3.30;;
27145;SDS011;17980;51.744;7.190;2023-01-31T02:48:20;19.43;;;3.20;;
27145;SDS011;17980;51.744;7.190;2023-01-31T02:50:53;22.17;;;3.37;;
27145;SDS011;17980;51.744;7.190;2023-01-31T02:53:33;18.17;;;3.00;;
27145;SDS011;17980;51.744;7.190;2023-01-31T02:56:05;17.67;;;3.43;;
27145;SDS011;17980;51.744;7.190;2023-01-31T02:58:43;22.67;;;4.00;;
27145;SDS011;17980;51.744;7.190;2023-01-31T03:01:21;24.80;;;3.23;;
27145;SDS011;17980;51.744;7.190;2023-01-31T03:03:53;16.87;;;3.20;;
27145;SDS011;17980;51.744;7.190;2023-01-31T03:09:35;22.20;;;3.43;;
27145;SDS011;17980;51.744;7.190;2023-01-31T03:12:17;17.37;;;2.70;;
27145;SDS011;17980;51.744;7.190;2023-01-31T03:14:58;16.03;;;2.50;;
27145;SDS011;17980;51.744;7.190;2023-01-31T03:17:34;20.43;;;3.07;;
27145;SDS011;17980;51.744;7.190;2023-01-31T03:20:10;22.10;;;3.60;;
27145;SDS011;17980;51.744;7.190;2023-01-31T03:22:42;12.87;;;2.57;;
27145;SDS011;17980;51.744;7.190;2023-01-31T03:25:12;28.47;;;3.23;;
27145;SDS011;17980;51.744;7.190;2023-01-31T03:27:51;23.23;;;3.27;;
27145;SDS011;17980;51.744;7.190;2023-01-31T03:30:23;15.00;;;2.10;;
27145;SDS011;17980;51.744;7.190;2023-01-31T03:33:02;12.83;;;3.30;;
27145;SDS011;17980;51.744;7.190;2023-01-31T03:35:32;12.53;;;3.27;;
27145;SDS011;17980;51.744;7.190;2023-01-31T03:38:04;16.00;;;2.50;;
27145;SDS011;17980;51.744;7.190;2023-01-31T03:40:44;19.43;;;2.90;;
27145;SDS011;17980;51.744;7.190;2023-01-31T03:43:16;14.67;;;3.07;;
27145;SDS011;17980;51.744;7.190;2023-01-31T03:45:47;15.23;;;3.13;;
27145;SDS011;17980;51.744;7.190;2023-01-31T03:48:17;27.13;;;3.87;;
27145;SDS011;17980;51.744;7.190;2023-01-31T03:50:54;15.40;;;2.80;;
27145;SDS011;17980;51.744;7.190;2023-01-31T03:53:25;16.70;;;2.13;;
27145;SDS011;17980;51.744;7.190;2023-01-31T03:55:56;18.57;;;2.83;;
27145;SDS011;17980;51.744;7.190;2023-01-31T03:58:36;16.23;;;2.90;;
27145;SDS011;17980;51.744;7.190;2023-01-31T04:01:05;16.13;;;3.83;;
27145;SDS011;17980;51.744;7.190;2023-01-31T04:03:36;21.13;;;3.33;;
27145;SDS011;17980;51.744;7.190;2023-01-31T04:06:14;20.87;;;3.50;;
27145;SDS011;17980;51.744;7.190;2023-01-31T04:08:42;12.53;;;2.90;;
27145;SDS011;17980;51.744;7.190;2023-01-31T04:11:10;17.63;;;2.67;;
27145;SDS011;17980;51.744;7.190;2023-01-31T04:13:48;11.90;;;2.90;;
27145;SDS011;17980;51.744;7.190;2023-01-31T04:16:15;23.57;;;2.90;;
27145;SDS011;17980;51.744;7.190;2023-01-31T04:18:42;16.63;;;3.43;;
27145;SDS011;17980;51.744;7.190;2023-01-31T04:21:19;23.23;;;3.27;;
27145;SDS011;17980;51.744;7.190;2023-01-31T04:23:47;16.57;;;2.80;;
27145;SDS011;17980;51.744;7.190;2023-01-31T04:26:14;19.60;;;3.60;;
27145;SDS011;17980;51.744;7.190;2023-01-31T04:28:42;17.73;;;3.70;;
27145;SDS011;17980;51.744;7.190;2023-01-31T04:31:18;18.67;;;3.80;;
27145;SDS011;17980;51.744;7.190;2023-01-31T04:33:46;20.43;;;3.77;;
27145;SDS011;17980;51.744;7.190;2023-01-31T04:36:13;20.60;;;3.53;;
27145;SDS011;17980;51.744;7.190;2023-01-31T04:38:40;23.53;;;3.27;;
27145;SDS011;17980;51.744;7.190;2023-01-31T04:41:07;18.53;;;3.90;;
27145;SDS011;17980;51.744;7.190;2023-01-31T04:43:35;22.80;;;4.10;;
27145;SDS011;17980;51.744;7.190;2023-01-31T04:46:02;25.90;;;4.03;;
27145;SDS011;17980;51.744;7.190;2023-01-31T04:48:29;17.20;;;4.03;;
27145;SDS011;17980;51.744;7.190;2023-01-31T04:50:57;22.20;;;4.40;;
27145;SDS011;17980;51.744;7.190;2023-01-31T04:53:33;21.60;;;4.67;;
27145;SDS011;17980;51.744;7.190;2023-01-31T04:56:01;29.13;;;4.93;;
27145;SDS011;17980;51.744;7.190;2023-01-31T04:58:38;18.80;;;4.73;;
27145;SDS011;17980;51.744;7.190;2023-01-31T05:01:06;24.17;;;5.27;;
27145;SDS011;17980;51.744;7.190;2023-01-31T05:03:43;24.40;;;5.30;;
27145;SDS011;17980;51.744;7.190;2023-01-31T05:06:10;23.13;;;5.63;;
27145;SDS011;17980;51.744;7.190;2023-01-31T05:08:37;24.50;;;6.40;;
27145;SDS011;17980;51.744;7.190;2023-01-31T05:11:05;26.47;;;6.27;;
27145;SDS011;17980;51.744;7.190;2023-01-31T05:13:32;25.43;;;6.30;;
27145;SDS011;17980;51.744;7.190;2023-01-31T05:16:04;19.37;;;5.87;;
27145;SDS011;17980;51.744;7.190;2023-01-31T05:18:42;22.13;;;6.43;;
27145;SDS011;17980;51.744;7.190;2023-01-31T05:21:09;25.03;;;7.23;;
27145;SDS011;17980;51.744;7.190;2023-01-31T05:23:46;24.43;;;7.80;;
27145;SDS011;17980;51.744;7.190;2023-01-31T05:26:13;27.07;;;7.40;;
27145;SDS011;17980;51.744;7.190;2023-01-31T05:28:40;31.63;;;8.20;;
27145;SDS011;17980;51.744;7.190;2023-01-31T05:31:23;27.70;;;7.23;;
27145;SDS011;17980;51.744;7.190;2023-01-31T05:33:51;18.30;;;6.63;;
27145;SDS011;17980;51.744;7.190;2023-01-31T05:36:18;22.63;;;7.07;;
27145;SDS011;17980;51.744;7.190;2023-01-31T05:38:45;31.93;;;8.23;;
27145;SDS011;17980;51.744;7.190;2023-01-31T05:41:13;26.03;;;7.93;;
27145;SDS011;17980;51.744;7.190;2023-01-31T05:43:41;24.03;;;8.27;;
27145;SDS011;17980;51.744;7.190;2023-01-31T05:46:08;28.03;;;8.13;;
27145;SDS011;17980;51.744;7.190;2023-01-31T05:48:35;25.33;;;8.60;;
27145;SDS011;17980;51.744;7.190;2023-01-31T05:51:02;30.40;;;9.90;;
27145;SDS011;17980;51.744;7.190;2023-01-31T05:53:39;30.73;;;9.30;;
27145;SDS011;17980;51.744;7.190;2023-01-31T05:56:07;24.00;;;8.87;;
27145;SDS011;17980;51.744;7.190;2023-01-31T05:58:34;20.67;;;9.13;;
27145;SDS011;17980;51.744;7.190;2023-01-31T06:01:11;24.80;;;8.90;;
27145;SDS011;17980;51.744;7.190;2023-01-31T06:03:38;29.63;;;8.83;;
27145;SDS011;17980;51.744;7.190;2023-01-31T06:06:05;31.00;;;8.93;;
27145;SDS011;17980;51.744;7.190;2023-01-31T06:11:09;28.60;;;9.37;;
27145;SDS011;17980;51.744;7.190;2023-01-31T06:16:13;30.73;;;9.40;;
27145;SDS011;17980;51.744;7.190;2023-01-31T06:18:40;29.50;;;9.40;;
27145;SDS011;17980;51.744;7.190;2023-01-31T06:21:17;30.80;;;9.67;;
27145;SDS011;17980;51.744;7.190;2023-01-31T06:23:44;24.47;;;8.63;;
27145;SDS011;17980;51.744;7.190;2023-01-31T06:26:12;23.50;;;8.93;;
27145;SDS011;17980;51.744;7.190;2023-01-31T06:28:39;32.53;;;8.33;;
27145;SDS011;17980;51.744;7.190;2023-01-31T06:31:16;17.83;;;7.07;;
27145;SDS011;17980;51.744;7.190;2023-01-31T06:33:44;23.27;;;8.37;;
27145;SDS011;17980;51.744;7.190;2023-01-31T06:36:11;25.47;;;7.03;;
27145;SDS011;17980;51.744;7.190;2023-01-31T06:38:38;22.60;;;7.57;;
27145;SDS011;17980;51.744;7.190;2023-01-31T06:41:15;29.00;;;8.40;;
27145;SDS011;17980;51.744;7.190;2023-01-31T06:43:43;22.40;;;8.47;;
27145;SDS011;17980;51.744;7.190;2023-01-31T06:46:10;23.30;;;7.10;;
27145;SDS011;17980;51.744;7.190;2023-01-31T06:48:37;21.53;;;7.90;;
27145;SDS011;17980;51.744;7.190;2023-01-31T06:51:05;22.63;;;8.13;;
27145;SDS011;17980;51.744;7.190;2023-01-31T06:53:41;21.33;;;7.40;;
27145;SDS011;17980;51.744;7.190;2023-01-31T06:56:09;31.77;;;9.70;;
27145;SDS011;17980;51.744;7.190;2023-01-31T06:58:36;24.53;;;8.43;;
27145;SDS011;17980;51.744;7.190;2023-01-31T07:01:13;23.37;;;7.60;;
27145;SDS011;17980;51.744;7.190;2023-01-31T07:03:41;25.20;;;8.17;;
27145;SDS011;17980;51.744;7.190;2023-01-31T07:06:08;20.67;;;7.97;;
27145;SDS011;17980;51.744;7.190;2023-01-31T07:08:36;24.27;;;8.43;;
27145;SDS011;17980;51.744;7.190;2023-01-31T07:11:04;24.53;;;8.03;;
27145;SDS011;17980;51.744;7.190;2023-01-31T07:13:31;29.87;;;8.63;;
27145;SDS011;17980;51.744;7.190;2023-01-31T07:15:58;28.03;;;7.80;;
27145;SDS011;17980;51.744;7.190;2023-01-31T07:18:26;22.40;;;7.50;;
27145;SDS011;17980;51.744;7.190;2023-01-31T07:20:53;25.67;;;8.30;;
27145;SDS011;17980;51.744;7.190;2023-01-31T07:23:20;20.63;;;7.37;;
27145;SDS011;17980;51.744;7.190;2023-01-31T07:25:47;19.00;;;7.10;;
27145;SDS011;17980;51.744;7.190;2023-01-31T07:28:14;23.13;;;8.17;;
27145;SDS011;17980;51.744;7.190;2023-01-31T07:30:51;26.87;;;8.60;;
27145;SDS011;17980;51.744;7.190;2023-01-31T07:33:18;22.10;;;7.63;;
27145;SDS011;17980;51.744;7.190;2023-01-31T07:35:46;21.90;;;7.63;;
27145;SDS011;17980;51.744;7.190;2023-01-31T07:38:13;23.47;;;8.03;;
27145;SDS011;17980;51.744;7.190;2023-01-31T07:40:50;22.00;;;8.20;;
27145;SDS011;17980;51.744;7.190;2023-01-31T07:43:17;22.83;;;7.57;;
27145;SDS011;17980;51.744;7.190;2023-01-31T07:45:46;22.60;;;8.23;;
27145;SDS011;17980;51.744;7.190;2023-01-31T07:48:14;24.30;;;9.00;;
27145;SDS011;17980;51.744;7.190;2023-01-31T07:50:41;22.37;;;7.17;;
27145;SDS011;17980;51.744;7.190;2023-01-31T07:53:18;23.90;;;8.37;;
27145;SDS011;17980;51.744;7.190;2023-01-31T07:55:46;31.80;;;9.87;;
27145;SDS011;17980;51.744;7.190;2023-01-31T07:58:13;18.23;;;6.50;;
27145;SDS011;17980;51.744;7.190;2023-01-31T08:00:50;18.33;;;7.23;;
27145;SDS011;17980;51.744;7.190;2023-01-31T08:03:37;23.73;;;8.77;;
27145;SDS011;17980;51.744;7.190;2023-01-31T08:06:14;26.80;;;7.47;;
27145;SDS011;17980;51.744;7.190;2023-01-31T08:08:41;21.37;;;7.87;;
27145;SDS011;17980;51.744;7.190;2023-01-31T08:11:19;17.23;;;6.67;;
27145;SDS011;17980;51.744;7.190;2023-01-31T08:13:46;27.37;;;8.50;;
27145;SDS011;17980;51.744;7.190;2023-01-31T08:16:13;18.27;;;7.53;;
27145;SDS011;17980;51.744;7.190;2023-01-31T08:18:40;23.13;;;7.67;;
27145;SDS011;17980;51.744;7.190;2023-01-31T08:21:17;18.23;;;6.53;;
27145;SDS011;17980;51.744;7.190;2023-01-31T08:23:45;19.80;;;6.47;;
27145;SDS011;17980;51.744;7.190;2023-01-31T08:26:13;26.13;;;6.83;;
27145;SDS011;17980;51.744;7.190;2023-01-31T08:28:41;20.30;;;7.57;;
27145;SDS011;17980;51.744;7.190;2023-01-31T08:31:19;24.23;;;7.30;;
27145;SDS011;17980;51.744;7.190;2023-01-31T08:33:48;22.10;;;6.23;;
27145;SDS011;17980;51.744;7.190;2023-01-31T08:36:18;22.57;;;6.73;;
27145;SDS011;17980;51.744;7.190;2023-01-31T08:38:48;16.50;;;7.23;;
27145;SDS011;17980;51.744;7.190;2023-01-31T08:41:32;21.33;;;7.37;;
27145;SDS011;17980;51.744;7.190;2023-01-31T08:44:00;21.10;;;7.10;;
27145;SDS011;17980;51.744;7.190;2023-01-31T08:46:30;19.67;;;6.17;;
27145;SDS011;17980;51.744;7.190;2023-01-31T08:48:58;23.40;;;7.03;;
27145;SDS011;17980;51.744;7.190;2023-01-31T08:51:35;17.43;;;5.80;;
27145;SDS011;17980;51.744;7.190;2023-01-31T08:56:39;20.33;;;6.10;;
27145;SDS011;17980;51.744;7.190;2023-01-31T08:59:06;17.13;;;5.07;;
27145;SDS011;17980;51.744;7.190;2023-01-31T09:01:43;22.20;;;5.77;;
27145;SDS011;17980;51.744;7.190;2023-01-31T09:04:11;18.00;;;5.87;;
27145;SDS011;17980;51.744;7.190;2023-01-31T09:06:38;15.77;;;6.23;;
27145;SDS011;17980;51.744;7.190;2023-01-31T09:09:15;18.87;;;5.97;;
27145;SDS011;17980;51.744;7.190;2023-01-31T09:11:42;16.57;;;5.00;;
27145;SDS011;17980;51.744;7.190;2023-01-31T09:14:19;18.53;;;5.63;;
27145;SDS011;17980;51.744;7.190;2023-01-31T09:16:46;20.30;;;5.00;;
27145;SDS011;17980;51.744;7.190;2023-01-31T09:19:14;16.47;;;4.80;;
27145;SDS011;17980;51.744;7.190;2023-01-31T09:21:50;20.00;;;4.87;;
27145;SDS011;17980;51.744;7.190;2023-01-31T09:24:18;15.30;;;4.60;;
27145;SDS011;17980;51.744;7.190;2023-01-31T09:26:45;13.87;;;4.80;;
27145;SDS011;17980;51.744;7.190;2023-01-31T09:29:12;18.43;;;4.57;;
27145;SDS011;17980;51.744;7.190;2023-01-31T09:31:50;18.50;;;4.77;;
27145;SDS011;17980;51.744;7.190;2023-01-31T09:34:17;19.83;;;5.57;;
27145;SDS011;17980;51.744;7.190;2023-01-31T09:36:46;18.77;;;4.83;;
27145;SDS011;17980;51.744;7.190;2023-01-31T09:39:23;22.13;;;5.37;;
27145;SDS011;17980;51.744;7.190;2023-01-31T09:41:52;19.53;;;4.70;;
27145;SDS011;17980;51.744;7.190;2023-01-31T09:44:31;18.50;;;4.10;;
27145;SDS011;17980;51.744;7.190;2023-01-31T09:47:03;18.80;;;3.77;;
27145;SDS011;17980;51.744;7.190;2023-01-31T09:49:43;19.97;;;5.40;;
27145;SDS011;17980;51.744;7.190;2023-01-31T09:52:13;15.20;;;4.70;;
27145;SDS011;17980;51.744;7.190;2023-01-31T09:54:50;17.27;;;4.63;;
27145;SDS011;17980;51.744;7.190;2023-01-31T09:57:19;14.53;;;4.40;;
27145;SDS011;17980;51.744;7.190;2023-01-31T10:00:02;20.67;;;4.93;;
27145;SDS011;17980;51.744;7.190;2023-01-31T10:02:41;15.83;;;4.63;;
27145;SDS011;17980;51.744;7.190;2023-01-31T10:05:25;21.70;;;5.27;;
27145;SDS011;17980;51.744;7.190;2023-01-31T10:07:58;11.70;;;3.80;;
27145;SDS011;17980;51.744;7.190;2023-01-31T10:10:36;21.60;;;4.30;;
27145;SDS011;17980;51.744;7.190;2023-01-31T10:13:09;21.03;;;4.47;;
27145;SDS011;17980;51.744;7.190;2023-01-31T10:15:48;20.30;;;5.07;;
27145;SDS011;17980;51.744;7.190;2023-01-31T10:18:21;17.20;;;5.20;;
27145;SDS011;17980;51.744;7.190;2023-01-31T10:20:52;17.80;;;4.97;;
27145;SDS011;17980;51.744;7.190;2023-01-31T10:23:30;20.53;;;6.30;;
27145;SDS011;17980;51.744;7.190;2023-01-31T10:26:02;21.07;;;4.87;;
27145;SDS011;17980;51.744;7.190;2023-01-31T10:28:34;13.93;;;4.70;;
27145;SDS011;17980;51.744;7.190;2023-01-31T10:31:14;13.80;;;4.33;;
27145;SDS011;17980;51.744;7.190;2023-01-31T10:36:23;25.27;;;5.23;;
27145;SDS011;17980;51.744;7.190;2023-01-31T10:41:44;16.60;;;4.53;;
27145;SDS011;17980;51.744;7.190;2023-01-31T10:44:19;15.67;;;4.50;;
27145;SDS011;17980;51.744;7.190;2023-01-31T10:46:57;16.63;;;3.87;;
27145;SDS011;17980;51.744;7.190;2023-01-31T10:52:05;20.37;;;4.63;;
27145;SDS011;17980;51.744;7.190;2023-01-31T10:54:41;14.20;;;4.40;;
27145;SDS011;17980;51.744;7.190;2023-01-31T10:57:17;14.37;;;4.33;;
27145;SDS011;17980;51.744;7.190;2023-01-31T10:59:54;15.77;;;5.87;;
27145;SDS011;17980;51.744;7.190;2023-01-31T11:02:22;13.97;;;3.87;;
27145;SDS011;17980;51.744;7.190;2023-01-31T11:05:00;18.37;;;4.00;;
27145;SDS011;17980;51.744;7.190;2023-01-31T11:10:19;14.67;;;3.57;;
27145;SDS011;17980;51.744;7.190;2023-01-31T11:12:52;15.00;;;3.67;;
27145;SDS011;17980;51.744;7.190;2023-01-31T11:15:34;18.07;;;3.50;;
27145;SDS011;17980;51.744;7.190;2023-01-31T11:18:01;13.13;;;3.40;;
27145;SDS011;17980;51.744;7.190;2023-01-31T11:20:43;10.57;;;3.60;;
27145;SDS011;17980;51.744;7.190;2023-01-31T11:23:13;18.70;;;3.90;;
27145;SDS011;17980;51.744;7.190;2023-01-31T11:25:45;14.93;;;3.60;;
27145;SDS011;17980;51.744;7.190;2023-01-31T11:28:23;15.43;;;3.83;;
27145;SDS011;17980;51.744;7.190;2023-01-31T11:30:55;15.10;;;2.83;;
27145;SDS011;17980;51.744;7.190;2023-01-31T11:33:38;13.20;;;3.27;;
27145;SDS011;17980;51.744;7.190;2023-01-31T11:36:09;12.80;;;3.20;;
27145;SDS011;17980;51.744;7.190;2023-01-31T11:38:47;12.67;;;3.37;;
27145;SDS011;17980;51.744;7.190;2023-01-31T11:41:28;12.60;;;3.53;;
27145;SDS011;17980;51.744;7.190;2023-01-31T11:44:10;14.97;;;3.83;;
27145;SDS011;17980;51.744;7.190;2023-01-31T11:46:46;14.87;;;4.03;;
27145;SDS011;17980;51.744;7.190;2023-01-31T11:49:20;11.67;;;2.90;;
27145;SDS011;17980;51.744;7.190;2023-01-31T11:51:59;12.60;;;4.10;;
27145;SDS011;17980;51.744;7.190;2023-01-31T11:54:29;13.87;;;4.50;;
27145;SDS011;17980;51.744;7.190;2023-01-31T11:56:58;13.27;;;4.30;;
27145;SDS011;17980;51.744;7.190;2023-01-31T12:02:03;10.43;;;3.93;;
27145;SDS011;17980;51.744;7.190;2023-01-31T12:07:20;11.10;;;4.10;;
27145;SDS011;17980;51.744;7.190;2023-01-31T12:09:49;13.60;;;4.27;;
27145;SDS011;17980;51.744;7.190;2023-01-31T12:12:27;16.93;;;5.47;;
27145;SDS011;17980;51.744;7.190;2023-01-31T12:14:59;13.10;;;5.10;;
27145;SDS011;17980;51.744;7.190;2023-01-31T12:17:43;15.93;;;5.50;;
27145;SDS011;17980;51.744;7.190;2023-01-31T12:20:11;15.77;;;5.67;;
27145;SDS011;17980;51.744;7.190;2023-01-31T12:22:55;16.23;;;6.03;;
27145;SDS011;17980;51.744;7.190;2023-01-31T12:25:35;22.47;;;5.60;;
27145;SDS011;17980;51.744;7.190;2023-01-31T12:28:11;15.20;;;5.97;;
27145;SDS011;17980;51.744;7.190;2023-01-31T12:30:47;13.83;;;5.57;;
27145;SDS011;17980;51.744;7.190;2023-01-31T12:33:32;14.47;;;5.67;;
27145;SDS011;17980;51.744;7.190;2023-01-31T12:36:16;16.37;;;6.47;;
27145;SDS011;17980;51.744;7.190;2023-01-31T12:38:53;12.97;;;5.87;;
27145;SDS011;17980;51.744;7.190;2023-01-31T12:41:37;20.17;;;6.70;;
27145;SDS011;17980;51.744;7.190;2023-01-31T12:44:10;15.30;;;6.77;;
27145;SDS011;17980;51.744;7.190;2023-01-31T12:47:10;19.10;;;6.40;;
27145;SDS011;17980;51.744;7.190;2023-01-31T12:49:57;19.00;;;7.43;;
27145;SDS011;17980;51.744;7.190;2023-01-31T12:52:47;17.57;;;7.90;;
27145;SDS011;17980;51.744;7.190;2023-01-31T12:55:20;19.03;;;7.33;;
27145;SDS011;17980;51.744;7.190;2023-01-31T12:57:54;19.47;;;8.67;;
27145;SDS011;17980;51.744;7.190;2023-01-31T13:00:37;18.30;;;9.57;;
27145;SDS011;17980;51.744;7.190;2023-01-31T13:05:45;21.10;;;9.87;;
27145;SDS011;17980;51.744;7.190;2023-01-31T13:08:16;17.43;;;10.63;;
27145;SDS011;17980;51.744;7.190;2023-01-31T13:10:55;22.50;;;10.67;;
27145;SDS011;17980;51.744;7.190;2023-01-31T13:13:26;22.93;;;10.63;;
27145;SDS011;17980;51.744;7.190;2023-01-31T13:18:40;23.07;;;10.93;;
27145;SDS011;17980;51.744;7.190;2023-01-31T13:21:12;23.07;;;12.57;;
27145;SDS011;17980;51.744;7.190;2023-01-31T13:23:43;19.10;;;11.50;;
27145;SDS011;17980;51.744;7.190;2023-01-31T13:26:14;28.53;;;14.90;;
27145;SDS011;17980;51.744;7.190;2023-01-31T13:28:54;21.13;;;11.10;;
27145;SDS011;17980;51.744;7.190;2023-01-31T13:31:24;23.10;;;12.50;;
27145;SDS011;17980;51.744;7.190;2023-01-31T13:34:04;21.47;;;12.87;;
27145;SDS011;17980;51.744;7.190;2023-01-31T13:36:37;19.77;;;11.57;;
27145;SDS011;17980;51.744;7.190;2023-01-31T13:39:16;19.53;;;12.07;;
27145;SDS011;17980;51.744;7.190;2023-01-31T13:41:46;18.60;;;11.80;;
27145;SDS011;17980;51.744;7.190;2023-01-31T13:44:22;18.33;;;11.73;;
27145;SDS011;17980;51.744;7.190;2023-01-31T13:46:52;13.73;;;11.03;;
27145;SDS011;17980;51.744;7.190;2023-01-31T13:52:09;18.27;;;12.50;;
27145;SDS011;17980;51.744;7.190;2023-01-31T13:54:40;23.83;;;12.80;;
27145;SDS011;17980;51.744;7.190;2023-01-31T13:57:17;19.50;;;12.10;;
27145;SDS011;17980;51.744;7.190;2023-01-31T13:59:51;24.03;;;14.13;;
27145;SDS011;17980;51.744;7.190;2023-01-31T14:02:29;17.20;;;12.90;;
27145;SDS011;17980;51.744;7.190;2023-01-31T14:05:03;19.23;;;13.33;;
27145;SDS011;17980;51.744;7.190;2023-01-31T14:07:34;25.13;;;14.73;;
27145;SDS011;17980;51.744;7.190;2023-01-31T14:15:48;21.10;;;13.47;;
27145;SDS011;17980;51.744;7.190;2023-01-31T14:18:34;20.63;;;13.23;;
27145;SDS011;17980;51.744;7.190;2023-01-31T14:24:17;25.97;;;14.37;;
27145;SDS011;17980;51.744;7.190;2023-01-31T14:26:52;22.80;;;15.20;;
27145;SDS011;17980;51.744;7.190;2023-01-31T14:29:29;23.23;;;14.33;;
27145;SDS011;17980;51.744;7.190;2023-01-31T14:31:59;23.63;;;14.53;;
27145;SDS011;17980;51.744;7.190;2023-01-31T14:34:35;19.40;;;13.27;;
27145;SDS011;17980;51.744;7.190;2023-01-31T14:37:07;22.03;;;13.83;;
27145;SDS011;17980;51.744;7.190;2023-01-31T14:42:43;23.27;;;14.73;;
27145;SDS011;17980;51.744;7.190;2023-01-31T14:45:32;18.87;;;13.73;;
27145;SDS011;17980;51.744;7.190;2023-01-31T14:48:24;23.43;;;14.60;;
27145;SDS011;17980;51.744;7.190;2023-01-31T14:51:03;25.33;;;16.27;;
27145;SDS011;17980;51.744;7.190;2023-01-31T14:53:55;14.40;;;10.33;;
27145;SDS011;17980;51.744;7.190;2023-01-31T14:56:54;23.77;;;16.30;;
27145;SDS011;17980;51.744;7.190;2023-01-31T14:59:45;21.23;;;15.97;;
27145;SDS011;17980;51.744;7.190;2023-01-31T15:02:38;21.57;;;15.73;;
27145;SDS011;17980;51.744;7.190;2023-01-31T15:05:12;20.87;;;16.67;;
27145;SDS011;17980;51.744;7.190;2023-01-31T15:08:01;23.50;;;15.77;;
27145;SDS011;17980;51.744;7.190;2023-01-31T15:13:34;26.87;;;17.47;;
27145;SDS011;17980;51.744;7.190;2023-01-31T15:16:08;18.83;;;16.87;;
27145;SDS011;17980;51.744;7.190;2023-01-31T15:18:48;26.73;;;18.17;;
27145;SDS011;17980;51.744;7.190;2023-01-31T15:21:28;23.13;;;18.63;;
27145;SDS011;17980;51.744;7.190;2023-01-31T15:24:09;28.47;;;17.90;;
27145;SDS011;17980;51.744;7.190;2023-01-31T15:26:40;20.17;;;16.13;;
27145;SDS011;17980;51.744;7.190;2023-01-31T15:29:07;18.33;;;15.07;;
27145;SDS011;17980;51.744;7.190;2023-01-31T15:31:48;21.20;;;17.37;;
27145;SDS011;17980;51.744;7.190;2023-01-31T15:34:19;22.60;;;15.70;;
27145;SDS011;17980;51.744;7.190;2023-01-31T15:36:51;21.73;;;15.43;;
27145;SDS011;17980;51.744;7.190;2023-01-31T15:39:35;24.17;;;15.80;;
27145;SDS011;17980;51.744;7.190;2023-01-31T15:42:18;20.47;;;15.73;;
27145;SDS011;17980;51.744;7.190;2023-01-31T15:45:12;24.80;;;15.57;;
27145;SDS011;17980;51.744;7.190;2023-01-31T15:47:42;20.47;;;14.63;;
27145;SDS011;17980;51.744;7.190;2023-01-31T15:50:13;19.70;;;14.83;;
27145;SDS011;17980;51.744;7.190;2023-01-31T15:52:53;21.07;;;16.03;;
27145;SDS011;17980;51.744;7.190;2023-01-31T15:55:20;27.43;;;14.73;;
27145;SDS011;17980;51.744;7.190;2023-01-31T15:57:58;21.47;;;16.77;;
27145;SDS011;17980;51.744;7.190;2023-01-31T16:00:27;48.70;;;36.57;;
27145;SDS011;17980;51.744;7.190;2023-01-31T16:03:06;30.67;;;18.40;;
27145;SDS011;17980;51.744;7.190;2023-01-31T16:08:19;22.23;;;14.70;;
27145;SDS011;17980;51.744;7.190;2023-01-31T16:10:49;26.20;;;13.80;;
27145;SDS011;17980;51.744;7.190;2023-01-31T16:13:26;18.80;;;12.03;;
27145;SDS011;17980;51.744;7.190;2023-01-31T16:15:54;20.07;;;12.33;;
27145;SDS011;17980;51.744;7.190;2023-01-31T16:18:22;19.57;;;12.27;;